Capt. Ted — WDD6210 — position and weather

sailwx.info

Track history (hours):
 
Tides and Currents Weather Stations Pressure Air Temp Water Temp Dewpoint Dewpoint Depression Visibility Wind Speed Wind Dir Waves Ship Positions

Capt. Ted

Owner: Salisbury Towing Corporation, Havre de Grace, MD. More information available from US FCC via Universal Licensing System and Coast Guard Vessel Documentation Center.

Last reported at 2016-Jul-28 03:33 UTC. Time now 2016-Jul-28 14:33 UTC.
Position N 38°52' W 076°25'.

Length 32 m; draft 2.8 m.

Type: Tug. MMSI: 367169710.

Date/timePositionNaut miles runAvg speedWind from/ knotsBaromVisibWave heightAir tempDewpointWater temp
2016-Jul-28 03:33N 38°52' W 076°25'6 6.3
2016-Jul-28 02:31N 38°58' W 076°24'7 6.4
2016-Jul-28 01:22N 39°05' W 076°21'7 7.2
2016-Jul-28 00:28N 39°11' W 076°17'15 7.8
2016-Jul-27 22:33N 39°23' W 076°05'5 5.4
2016-Jul-27 21:33N 39°28' W 076°04'6 5.7
2016-Jul-27 20:32N 39°34' W 076°06'1 0.9
2016-Jul-27 19:33N 39°33' W 076°05'7 7.5
2016-Jul-27 18:33N 39°26' W 076°02'9 8.8
2016-Jul-27 17:33N 39°20' W 076°11'9 8.8
2016-Jul-27 16:32N 39°12' W 076°16'8 8.4
2016-Jul-27 15:32N 39°05' W 076°21'8 8.6
2016-Jul-27 14:33N 38°57' W 076°24'9 8.5
2016-Jul-27 13:32N 38°48' W 076°27'8 8.3
2016-Jul-27 12:33N 38°40' W 076°28'8 8.4
2016-Jul-27 11:33N 38°32' W 076°26'9 8.6
2016-Jul-27 10:32N 38°24' W 076°22'8 8.3
2016-Jul-27 09:33N 38°16' W 076°19'11 8.1
2016-Jul-27 08:08N 38°05' W 076°15'5 8.1
2016-Jul-27 07:34N 38°01' W 076°14'9 7.7
2016-Jul-27 06:22N 37°52' W 076°09'75 2.8
2016-Jul-26 03:30N 39°07' W 076°20'20 6.5
2016-Jul-26 00:23N 39°23' W 076°05'5 5.8
2016-Jul-25 23:33N 39°27' W 076°03'6 5.9
2016-Jul-25 22:32N 39°33' W 076°05'2 0.5
2016-Jul-25 19:10N 39°34' W 076°06'0 0.0
2016-Jul-25 18:29N 39°34' W 076°06'0 0.0
2016-Jul-25 13:28N 39°34' W 076°06'0 0.0
2016-Jul-25 12:33N 39°34' W 076°06'0 0.0
2016-Jul-25 11:20N 39°34' W 076°06'0 0.0
2016-Jul-25 10:28N 39°34' W 076°06'0 0.0
2016-Jul-25 09:22N 39°34' W 076°06'0 0.0
2016-Jul-25 08:17N 39°34' W 076°06'0 0.0
2016-Jul-25 07:21N 39°34' W 076°06'0 0.0
2016-Jul-25 06:28N 39°34' W 076°06'0 0.0
2016-Jul-25 01:19N 39°34' W 076°06'0 0.0
2016-Jul-25 00:33N 39°34' W 076°06'7 7.0
2016-Jul-24 23:33N 39°28' W 076°03'7 6.5
2016-Jul-24 22:33N 39°22' W 076°08'7 7.2
2016-Jul-24 21:33N 39°17' W 076°14'7 7.2
2016-Jul-24 20:33N 39°13' W 076°22'7 7.2
2016-Jul-24 19:33N 39°12' W 076°31'5 4.6
2016-Jul-24 18:33N 39°15' W 076°36'6 5.8
2016-Jul-24 17:33N 39°12' W 076°30'18 5.7
2016-Jul-24 14:25N 39°21' W 076°10'5 6.1
2016-Jul-24 13:33N 39°24' W 076°04'5 5.2
2016-Jul-24 12:34N 39°29' W 076°04'4 4.3
2016-Jul-24 11:33N 39°33' W 076°05'2 2.4
2016-Jul-24 10:33N 39°31' W 076°05'6 6.1
2016-Jul-24 09:33N 39°25' W 076°03'6 6.2
2016-Jul-24 08:33N 39°21' W 076°09'6 6.1
2016-Jul-24 07:33N 39°17' W 076°14'7 6.8
2016-Jul-24 06:33N 39°13' W 076°22'7 7.1
2016-Jul-24 05:33N 39°12' W 076°31'5 5.0
2016-Jul-24 04:33N 39°15' W 076°36'2 2.0
2016-Jul-24 03:33N 39°15' W 076°34'7 6.9
2016-Jul-24 02:33N 39°11' W 076°26'7 7.3
2016-Jul-24 01:33N 39°04' W 076°24'8 8.0
2016-Jul-24 00:33N 38°56' W 076°24'41 2.7
2016-Jul-23 09:31N 38°38' W 075°37'4 3.6
2016-Jul-23 08:27N 38°35' W 075°40'52 2.7
2016-Jul-22 13:31N 39°23' W 076°07'5 5.1
2016-Jul-22 12:33N 39°26' W 076°02'5 5.1
2016-Jul-22 11:33N 39°31' W 076°05'4 3.6
2016-Jul-22 10:33N 39°34' W 076°06'0 0.0
2016-Jul-22 09:05N 39°34' W 076°06'0 0.0
2016-Jul-22 08:33N 39°34' W 076°06'3 2.6
2016-Jul-22 07:33N 39°32' W 076°05'11 5.7
2016-Jul-22 05:34N 39°21' W 076°10'7 7.3
2016-Jul-22 04:33N 39°16' W 076°16'8 8.0
2016-Jul-22 03:33N 39°11' W 076°25'6 6.4
2016-Jul-22 02:33N 39°13' W 076°33'0 0.0
2016-Jul-22 01:33N 39°13' W 076°33'0 0.0
2016-Jul-22 00:33N 39°13' W 076°33'0 0.0
2016-Jul-21 23:33N 39°13' W 076°33'0 0.0
2016-Jul-21 22:33N 39°13' W 076°33'1 1.1
2016-Jul-21 21:32N 39°14' W 076°34'0 0.0
2016-Jul-21 20:27N 39°14' W 076°34'5 5.2
2016-Jul-21 19:33N 39°11' W 076°29'31 4.4
2016-Jul-21 12:33N 38°46' W 076°06'3 2.9
2016-Jul-21 11:29N 38°44' W 076°08'5 5.4
2016-Jul-21 10:31N 38°39' W 076°12'7 6.7
2016-Jul-21 09:31N 38°38' W 076°20'8 3.9
2016-Jul-21 07:32N 38°44' W 076°27'4 3.6
2016-Jul-21 06:33N 38°47' W 076°27'7 6.4
2016-Jul-21 05:32N 38°54' W 076°25'8 8.1
2016-Jul-21 04:33N 39°01' W 076°22'7 6.9
2016-Jul-21 03:33N 39°08' W 076°20'8 6.6
2016-Jul-21 02:23N 39°14' W 076°14'11 5.7
2016-Jul-21 00:29N 39°23' W 076°06'5 5.3
2016-Jul-20 23:33N 39°27' W 076°02'5 5.3
2016-Jul-20 22:33N 39°32' W 076°05'1 1.1
2016-Jul-20 21:33N 39°33' W 076°05'7 6.9
2016-Jul-20 20:33N 39°26' W 076°02'7 6.9
2016-Jul-20 19:33N 39°22' W 076°09'7 6.7
2016-Jul-20 18:30N 39°16' W 076°14'79 2.0
2016-Jul-19 02:33N 38°02' W 075°40'4 3.6
2016-Jul-19 01:20N 37°58' W 075°42'32 2.5
2016-Jul-18 12:32N 38°01' W 076°23'8 8.0
2016-Jul-18 11:33N 38°06' W 076°30'  
Track history (hours):
 
Tides and Currents Weather Stations Pressure Air Temp Water Temp Dewpoint Dewpoint Depression Visibility Wind Speed Wind Dir Waves Ship Positions

Capt. Ted

Owner: Salisbury Towing Corporation, Havre de Grace, MD. More information available from US FCC via Universal Licensing System and Coast Guard Vessel Documentation Center.

Last reported at 2016-Jul-28 03:33 UTC. Time now 2016-Jul-28 14:33 UTC.
Position N 38°52' W 076°25'.

Length 32 m; draft 2.8 m.

Type: Tug. MMSI: 367169710.

Date/timePositionNaut miles runAvg speedWind from/ knotsBaromVisibWave heightAir tempDewpointWater temp
2016-Jul-28 03:33N 38°52' W 076°25'6 6.3
2016-Jul-28 02:31N 38°58' W 076°24'7 6.4
2016-Jul-28 01:22N 39°05' W 076°21'7 7.2
2016-Jul-28 00:28N 39°11' W 076°17'15 7.8
2016-Jul-27 22:33N 39°23' W 076°05'5 5.4
2016-Jul-27 21:33N 39°28' W 076°04'6 5.7
2016-Jul-27 20:32N 39°34' W 076°06'1 0.9
2016-Jul-27 19:33N 39°33' W 076°05'7 7.5
2016-Jul-27 18:33N 39°26' W 076°02'9 8.8
2016-Jul-27 17:33N 39°20' W 076°11'9 8.8
2016-Jul-27 16:32N 39°12' W 076°16'8 8.4
2016-Jul-27 15:32N 39°05' W 076°21'8 8.6
2016-Jul-27 14:33N 38°57' W 076°24'9 8.5
2016-Jul-27 13:32N 38°48' W 076°27'8 8.3
2016-Jul-27 12:33N 38°40' W 076°28'8 8.4
2016-Jul-27 11:33N 38°32' W 076°26'9 8.6
2016-Jul-27 10:32N 38°24' W 076°22'8 8.3
2016-Jul-27 09:33N 38°16' W 076°19'11 8.1
2016-Jul-27 08:08N 38°05' W 076°15'5 8.1
2016-Jul-27 07:34N 38°01' W 076°14'9 7.7
2016-Jul-27 06:22N 37°52' W 076°09'75 2.8
2016-Jul-26 03:30N 39°07' W 076°20'20 6.5
2016-Jul-26 00:23N 39°23' W 076°05'5 5.8
2016-Jul-25 23:33N 39°27' W 076°03'6 5.9
2016-Jul-25 22:32N 39°33' W 076°05'2 0.5
2016-Jul-25 19:10N 39°34' W 076°06'0 0.0
2016-Jul-25 18:29N 39°34' W 076°06'0 0.0
2016-Jul-25 13:28N 39°34' W 076°06'0 0.0
2016-Jul-25 12:33N 39°34' W 076°06'0 0.0
2016-Jul-25 11:20N 39°34' W 076°06'0 0.0
2016-Jul-25 10:28N 39°34' W 076°06'0 0.0
2016-Jul-25 09:22N 39°34' W 076°06'0 0.0
2016-Jul-25 08:17N 39°34' W 076°06'0 0.0
2016-Jul-25 07:21N 39°34' W 076°06'0 0.0
2016-Jul-25 06:28N 39°34' W 076°06'0 0.0
2016-Jul-25 01:19N 39°34' W 076°06'0 0.0
2016-Jul-25 00:33N 39°34' W 076°06'7 7.0
2016-Jul-24 23:33N 39°28' W 076°03'7 6.5
2016-Jul-24 22:33N 39°22' W 076°08'7 7.2
2016-Jul-24 21:33N 39°17' W 076°14'7 7.2
2016-Jul-24 20:33N 39°13' W 076°22'7 7.2
2016-Jul-24 19:33N 39°12' W 076°31'5 4.6
2016-Jul-24 18:33N 39°15' W 076°36'6 5.8
2016-Jul-24 17:33N 39°12' W 076°30'18 5.7
2016-Jul-24 14:25N 39°21' W 076°10'5 6.1
2016-Jul-24 13:33N 39°24' W 076°04'5 5.2
2016-Jul-24 12:34N 39°29' W 076°04'4 4.3
2016-Jul-24 11:33N 39°33' W 076°05'2 2.4
2016-Jul-24 10:33N 39°31' W 076°05'6 6.1
2016-Jul-24 09:33N 39°25' W 076°03'6 6.2
2016-Jul-24 08:33N 39°21' W 076°09'6 6.1
2016-Jul-24 07:33N 39°17' W 076°14'7 6.8
2016-Jul-24 06:33N 39°13' W 076°22'7 7.1
2016-Jul-24 05:33N 39°12' W 076°31'5 5.0
2016-Jul-24 04:33N 39°15' W 076°36'2 2.0
2016-Jul-24 03:33N 39°15' W 076°34'7 6.9
2016-Jul-24 02:33N 39°11' W 076°26'7 7.3
2016-Jul-24 01:33N 39°04' W 076°24'8 8.0
2016-Jul-24 00:33N 38°56' W 076°24'41 2.7
2016-Jul-23 09:31N 38°38' W 075°37'4 3.6
2016-Jul-23 08:27N 38°35' W 075°40'52 2.7
2016-Jul-22 13:31N 39°23' W 076°07'5 5.1
2016-Jul-22 12:33N 39°26' W 076°02'5 5.1
2016-Jul-22 11:33N 39°31' W 076°05'4 3.6
2016-Jul-22 10:33N 39°34' W 076°06'0 0.0
2016-Jul-22 09:05N 39°34' W 076°06'0 0.0
2016-Jul-22 08:33N 39°34' W 076°06'3 2.6
2016-Jul-22 07:33N 39°32' W 076°05'11 5.7
2016-Jul-22 05:34N 39°21' W 076°10'7 7.3
2016-Jul-22 04:33N 39°16' W 076°16'8 8.0
2016-Jul-22 03:33N 39°11' W 076°25'6 6.4
2016-Jul-22 02:33N 39°13' W 076°33'0 0.0
2016-Jul-22 01:33N 39°13' W 076°33'0 0.0
2016-Jul-22 00:33N 39°13' W 076°33'0 0.0
2016-Jul-21 23:33N 39°13' W 076°33'0 0.0
2016-Jul-21 22:33N 39°13' W 076°33'1 1.1
2016-Jul-21 21:32N 39°14' W 076°34'0 0.0
2016-Jul-21 20:27N 39°14' W 076°34'5 5.2
2016-Jul-21 19:33N 39°11' W 076°29'31 4.4
2016-Jul-21 12:33N 38°46' W 076°06'3 2.9
2016-Jul-21 11:29N 38°44' W 076°08'5 5.4
2016-Jul-21 10:31N 38°39' W 076°12'7 6.7
2016-Jul-21 09:31N 38°38' W 076°20'8 3.9
2016-Jul-21 07:32N 38°44' W 076°27'4 3.6
2016-Jul-21 06:33N 38°47' W 076°27'7 6.4
2016-Jul-21 05:32N 38°54' W 076°25'8 8.1
2016-Jul-21 04:33N 39°01' W 076°22'7 6.9
2016-Jul-21 03:33N 39°08' W 076°20'8 6.6
2016-Jul-21 02:23N 39°14' W 076°14'11 5.7
2016-Jul-21 00:29N 39°23' W 076°06'5 5.3
2016-Jul-20 23:33N 39°27' W 076°02'5 5.3
2016-Jul-20 22:33N 39°32' W 076°05'1 1.1
2016-Jul-20 21:33N 39°33' W 076°05'7 6.9
2016-Jul-20 20:33N 39°26' W 076°02'7 6.9
2016-Jul-20 19:33N 39°22' W 076°09'7 6.7
2016-Jul-20 18:30N 39°16' W 076°14'79 2.0
2016-Jul-19 02:33N 38°02' W 075°40'4 3.6
2016-Jul-19 01:20N 37°58' W 075°42'32 2.5
2016-Jul-18 12:32N 38°01' W 076°23'8 8.0
2016-Jul-18 11:33N 38°06' W 076°30'  

Dump ship's entire track history